Nearby METAR Reports

 

KBFI - Seattle/Boeing, Washington, USA
Distance from station: S 10mi, 16km
Updated: Fri, 19-Jul-2019 1:53pm PDT
Mostly cloudy
Mostly cloudy
 Wind from NW
Wind: NW 6 mph , 9 km/h
Temperature: 70°F , 21°C
Dew Point: 46°F , 8°C
Humidity: 43%
Barometer: 30.15 inHg , 1021 hPa
Clouds: Mostly cloudy
Visibility: 10 miles , 16 km
Cloud details: Partly cloudy 4000 ft
Mostly cloudy 5500 ft
2019/07/19 20:53 KBFI 192053Z 31005KT 10SM SCT040 BKN055 21/08 A3015 RMK AO2 SLP209 T02060078 58004
KRNT - Renton, Washington, USA
Distance from station: SSE 14mi, 23km
Updated: Fri, 19-Jul-2019 1:53pm PDT
Clear
Clear
 Wind from NNW
Wind: NNW 7 mph , 11 km/h
Temperature: 66°F , 19°C
Dew Point: 50°F , 10°C
Humidity: 56%
Barometer: 30.15 inHg , 1021 hPa
Clouds: Clear
Visibility: 8 miles , 13 km
2019/07/19 20:53 KRNT 192053Z 33006KT 8SM CLR 19/10 A3015 RMK AO2 SLP213 T01940100 58002
 
KPAE - Everett, Washington, USA
Distance from station: N 15mi, 25km
Updated: Fri, 19-Jul-2019 1:53pm PDT
Clear
Clear
 Wind from W
Wind: W 6 mph , 9 km/h
Temperature: 64°F , 18°C
Dew Point: 45°F , 7°C
Humidity: 49%
Barometer: 30.16 inHg , 1021.3 hPa
Clouds: Clear
Visibility: 10 miles , 16 km
2019/07/19 20:53 KPAE 192053Z 27005KT 10SM CLR 18/07 A3016 RMK AO2 SLP213 T01830072 58001
KSEA - Seattle/Metro, Washington, USA
Distance from station: S 17mi, 27km
Updated: Fri, 19-Jul-2019 1:53pm PDT
Partly cloudy
Partly cloudy
 Wind from NE
Wind: NE 6 mph , 9 km/h
Temperature: 70°F , 21°C
Dew Point: 48°F , 9°C
Humidity: 46%
Barometer: 30.15 inHg , 1021 hPa
Clouds: Partly cloudy
Visibility: 10 miles , 16 km
Cloud details: Few Clouds 3000 ft
Partly cloudy 6500 ft
2019/07/19 20:53 KSEA 192053Z 05005KT 10SM FEW030 SCT065 21/09 A3015 RMK AO2 SLP216 T02060089 58001
 
KPWT - Bremerton Ntnl, Washington, USA
Distance from station: SW 24mi, 39km
Updated: Fri, 19-Jul-2019 1:56pm PDT
Mostly cloudy
Mostly cloudy
 Wind from SSE
Wind: SSE 5 mph , 7 km/h
Temperature: 66°F , 19°C
Dew Point: 48°F , 9°C
Humidity: 52%
Barometer: 30.15 inHg , 1021 hPa
Clouds: Mostly cloudy
Visibility: 10 miles , 16 km
Cloud details: Mostly cloudy 3900 ft
2019/07/19 20:56 KPWT 192056Z AUTO 15004KT 10SM BKN039 19/09 A3015 RMK AO2 SLP226 T01890094
KTIW - Tacoma, Washington, USA
Distance from station: SSW 32mi, 52km
Updated: Fri, 19-Jul-2019 1:53pm PDT
Clear
Clear
 Wind from N
Wind: N 8 mph , 13 km/h
Temperature: 66°F , 19°C
Dew Point: 46°F , 8°C
Humidity: 49%
Barometer: 30.15 inHg , 1021 hPa
Clouds: Clear
Visibility: 10 miles , 16 km
2019/07/19 20:53 KTIW 192053Z 01007KT 10SM CLR 19/08 A3015 RMK AO2 SLP206 T01890078 58006
 
KAWO - Arlington Muni, Washington, USA
Distance from station: N 33mi, 54km
Updated: Fri, 19-Jul-2019 1:56pm PDT

 Wind from WNW
Wind: WNW 6 mph , 9 km/h
Temperature: 66°F , 19°C
Dew Point: 48°F , 9°C
Humidity: 52%
Barometer: 30.15 inHg , 1021 hPa
Visibility: 10 miles , 16 km
2019/07/19 20:56 KAWO 192056Z AUTO 29005KT 10SM 19/09 A3015 RMK AO2 SLP214 T01890089 58003 $
KTCM - Tacoma/Mc Chord, Washington, USA
Distance from station: S 41mi, 65km
Updated: Fri, 19-Jul-2019 1:58pm PDT
Few Clouds
Few Clouds
 Wind from N
Wind: N 6 mph , 9 km/h
Temperature: 68°F , 20°C
Dew Point: 50°F , 10°C
Humidity: 53%
Barometer: 30.14 inHg , 1020.7 hPa
Clouds: Few Clouds
Visibility: 10 miles , 16 km
Cloud details: Few Clouds 4600 ft
2019/07/19 20:58 KTCM 192058Z AUTO 35005KT 10SM FEW046 20/10 A3014 RMK AO2 SLP210 T02010102 58004 $
 
KPLU - Puyallup/Thun, Washington, USA
Distance from station: S 41mi, 66km
Updated: Fri, 19-Jul-2019 1:55pm PDT
Partly cloudy
Partly cloudy
 Wind from NNW
Wind: NNW 10 mph , 17 km/h
Temperature: 70°F , 21°C
Dew Point: 48°F , 9°C
Humidity: 46%
Barometer: 30.14 inHg , 1020.7 hPa
Clouds: Partly cloudy
Visibility: 10 miles , 16 km
Cloud details: Few Clouds 4400 ft
Partly cloudy 6500 ft
2019/07/19 20:55 KPLU 192055Z AUTO 33009KT 300V020 10SM FEW044 SCT065 21/09 A3014 RMK AO2
KGRF - Fort Lewis/Gray, Washington, USA
Distance from station: SSW 45mi, 72km
Updated: Fri, 19-Jul-2019 1:58pm PDT
Few Clouds
Few Clouds
 Wind from NNW
Wind: NNW 5 mph , 7 km/h
Temperature: 70°F , 21°C
Dew Point: 52°F , 11°C
Humidity: 53%
Barometer: 30.13 inHg , 1020.3 hPa
Clouds: Few Clouds
Visibility: 10 miles , 16 km
Cloud details: Few Clouds 4500 ft
2019/07/19 20:58 KGRF 192058Z 33004KT 10SM FEW045 21/11 A3013 RMK AO2A SLP206 T02060112 58004 $
 
KNUW - Whidbey Is. Nas, Washington, USA
Distance from station: NNW 48mi, 77km
Updated: Fri, 19-Jul-2019 1:56pm PDT
Partly cloudy
Partly cloudy
 Wind from W
Wind: W 8 mph , 13 km/h
Temperature: 66°F , 19°C
Dew Point: 52°F , 11°C
Humidity: 60%
Barometer: 30.20 inHg , 1022.7 hPa
Clouds: Partly cloudy
Visibility: 10 miles , 16 km
Cloud details: Few Clouds 2500 ft
Partly cloudy 6000 ft
2019/07/19 20:56 KNUW 192056Z 27007KT 10SM FEW025 SCT060 19/11 A3020 RMK AO2 SLP224 T01890106 50001 $
KSHN - Shelton, Washington, USA
Distance from station: SW 50mi, 80km
Updated: Fri, 19-Jul-2019 1:53pm PDT
Mostly cloudy
Mostly cloudy
 
Temperature: 70°F , 21°C
Dew Point: 46°F , 8°C
Humidity: 43%
Barometer: 30.12 inHg , 1020 hPa
Clouds: Mostly cloudy
Visibility: 10 miles , 16 km
Cloud details: Mostly cloudy 7000 ft
2019/07/19 20:53 KSHN 192053Z AUTO 10SM BKN070 21/08 A3012 RMK AO2 SLP198 T02110078 58004